Time;durP1;ratioP1;P1;durP2;ratioP2;P2;SDS_P1;SDS_P2;PMS_P1;PMS_P2;Temp;Humidity;BMP_temperature;BMP_pressure;BME280_temperature;BME280_humidity;BME280_pressure;Samples;Min_cycle;Max_cycle;Signal;HPM_P1;HPM_P2
2023/05/08 00:02:24;;;;;;;3.33;3.03;;;;;;;14.05;71.36;148609.47;5066604;28;20265;-48
2023/05/08 00:05:20;;;;;;;5.03;3.33;;;;;;;14.01;71.03;148600.63;5067464;28;20191;-51
2023/05/08 00:08:11;;;;;;;3.73;3.07;;;;;;;14.00;70.50;148598.09;5066803;28;20188;-50
2023/05/08 00:11:01;;;;;;;4.53;3.27;;;;;;;13.98;70.91;148593.09;5068222;28;20253;-48
2023/05/08 00:13:46;;;;;;;4.10;2.87;;;;;;;13.95;71.05;148584.25;5066880;28;20196;-49
2023/05/08 00:16:27;;;;;;;3.00;2.80;;;;;;;13.95;69.95;148585.50;5066676;28;20188;-48
2023/05/08 00:19:11;;;;;;;3.50;3.30;;;;;;;13.92;70.26;148576.66;5067062;28;20192;-48
2023/05/08 00:22:04;;;;;;;4.07;3.47;;;;;;;13.85;70.90;148560.31;5068482;28;20218;-49
2023/05/08 00:24:57;;;;;;;4.33;3.70;;;;;;;13.93;70.10;148579.19;5066142;28;20200;-48
2023/05/08 00:27:45;;;;;;;4.93;3.73;;;;;;;13.99;69.56;148594.34;5065520;28;20602;-48
2023/05/08 00:30:32;;;;;;;4.10;3.80;;;;;;;13.94;68.65;148582.97;5064408;28;20195;-49
2023/05/08 00:33:23;;;;;;;9.20;3.90;;;;;;;13.90;68.88;148571.63;5067760;28;20242;-47
2023/05/08 00:39:03;;;;;;;4.20;3.80;;;;;;;13.84;69.13;148557.78;5064707;28;20249;-48
2023/05/08 00:41:55;;;;;;;4.20;3.80;;;;;;;13.74;69.07;148533.84;5066691;28;20301;-48
2023/05/08 00:44:46;;;;;;;4.53;4.17;;;;;;;13.66;69.77;148513.63;5063632;28;20196;-49
2023/05/08 00:47:30;;;;;;;7.80;4.00;;;;;;;13.70;69.66;148522.47;5067453;28;20219;-47
2023/05/08 00:50:18;;;;;;;5.70;4.27;;;;;;;13.68;69.85;148518.69;5067014;28;20204;-48
2023/05/08 00:53:08;;;;;;;4.03;3.73;;;;;;;13.68;69.53;148517.41;5066862;28;20192;-48
2023/05/08 00:56:26;;;;;;;4.37;3.97;;;;;;;13.57;70.78;148489.69;5068289;28;20199;-48
2023/05/08 00:59:26;;;;;;;4.23;3.60;;;;;;;13.60;70.38;148498.53;5071469;28;20633;-48
2023/05/08 01:02:21;;;;;;;3.70;3.40;;;;;;;13.59;71.18;148496.00;5071946;28;20195;-47
2023/05/08 01:05:06;;;;;;;5.77;3.37;;;;;;;13.55;71.28;148484.66;5067827;28;20199;-47
2023/05/08 01:08:04;;;;;;;;;;;;;;;;;;;;;
2023/05/08 01:11:07;;;;;;;4.93;3.27;;;;;;;13.55;71.56;148485.91;5071206;28;20196;-48
2023/05/08 01:14:17;;;;;;;3.47;3.20;;;;;;;13.66;70.00;148513.63;5071765;28;20726;-48
2023/05/08 01:17:24;;;;;;;4.87;3.13;;;;;;;13.58;70.27;148493.47;5069901;28;20238;-48
2023/05/08 01:20:29;;;;;;;7.73;3.53;;;;;;;13.59;69.26;148496.00;5071243;28;20191;-47
2023/05/08 01:27:23;;;;;;;;;;;;;;;;;;;;;
2023/05/08 01:33:49;;;;;;;3.50;3.30;;;;;;;13.39;70.84;148445.59;5057313;28;20200;-48
2023/05/08 01:42:44;;;;;;;3.47;3.20;;;;;;;13.29;71.33;148421.66;5069836;28;20587;-50
2023/05/08 01:45:26;;;;;;;3.27;3.07;;;;;;;13.27;71.27;148416.63;5068952;28;20196;-49
2023/05/08 01:48:14;;;;;;;5.77;3.90;;;;;;;13.14;71.45;148382.53;5070095;28;20299;-48
2023/05/08 01:51:19;;;;;;;3.80;3.40;;;;;;;13.19;71.64;148396.47;5069715;28;20192;-49
2023/05/08 01:54:17;;;;;;;4.07;3.67;;;;;;;13.18;71.55;148392.69;5069229;28;20200;-50
2023/05/08 02:00:11;;;;;;;7.77;3.50;;;;;;;13.14;71.50;148383.84;5069637;28;20196;-50
2023/05/08 02:03:13;;;;;;;3.70;3.13;;;;;;;13.12;70.94;148378.75;5071104;28;20192;-47
2023/05/08 02:06:06;;;;;;;3.27;3.07;;;;;;;13.15;71.23;148385.13;5070968;28;20217;-47
2023/05/08 02:09:09;;;;;;;5.87;3.43;;;;;;;13.19;69.98;148396.47;5070464;28;20203;-49
2023/05/08 02:12:03;;;;;;;4.97;3.43;;;;;;;13.21;69.02;148400.22;5068987;28;20531;-49
2023/05/08 02:15:13;;;;;;;3.73;2.90;;;;;;;13.10;69.35;148374.97;5069844;28;20257;-47
2023/05/08 02:18:12;;;;;;;6.30;3.53;;;;;;;13.06;70.14;148364.94;5065964;28;20250;-50
2023/05/08 02:21:00;;;;;;;3.37;3.17;;;;;;;13.10;69.64;148374.97;5067499;28;20200;-49
2023/05/08 02:24:00;;;;;;;4.40;4.00;;;;;;;12.99;69.54;148346.00;5069427;28;20203;-50
2023/05/08 02:27:00;;;;;;;4.47;3.53;;;;;;;12.91;70.74;148325.84;5066583;28;20226;-50
2023/05/08 02:29:59;;;;;;;5.10;3.30;;;;;;;12.99;70.74;148346.00;5071387;28;20192;-48
2023/05/08 02:33:01;;;;;;;5.37;3.60;;;;;;;12.98;70.58;148343.53;5068688;28;20232;-49
2023/05/08 02:36:04;;;;;;;4.03;3.23;;;;;;;12.98;70.76;148343.53;5069835;28;20318;-48
2023/05/08 02:38:57;;;;;;;4.23;3.60;;;;;;;13.03;70.46;148356.09;5069443;28;20224;-49
2023/05/08 02:42:01;;;;;;;3.77;3.47;;;;;;;13.00;70.35;148349.78;5068981;28;20584;-47
2023/05/08 02:44:31;;;;;;;5.10;3.43;;;;;;;13.17;69.29;148390.16;5069296;28;20200;-47
2023/05/08 02:47:12;;;;;;;5.83;3.40;;;;;;;13.10;69.53;148374.97;5070936;28;20212;-49
2023/05/08 02:50:01;;;;;;;7.43;3.27;;;;;;;13.12;68.90;148377.50;5071122;28;20204;-50
2023/05/08 02:52:59;;;;;;;6.23;3.37;;;;;;;13.16;68.70;148387.63;5068897;28;20207;-48
2023/05/08 02:59:14;;;;;;;6.27;3.90;;;;;;;13.06;69.63;148363.66;5068791;28;20192;-48
2023/05/08 03:02:22;;;;;;;4.27;3.70;;;;;;;13.05;68.71;148361.16;5070407;28;20200;-50
2023/05/08 03:05:22;;;;;;;3.80;3.50;;;;;;;13.01;69.89;148352.31;5067095;28;20278;-48
2023/05/08 03:17:45;;;;;;;6.67;3.47;;;;;;;12.97;67.51;148341.00;5068075;28;20727;-51
2023/05/08 03:24:01;;;;;;;3.97;3.30;;;;;;;12.89;67.35;148322.06;5068046;28;20235;-47
2023/05/08 03:30:01;;;;;;;6.37;3.83;;;;;;;13.04;66.79;148358.63;5069586;28;20208;-50
2023/05/08 03:33:17;;;;;;;3.23;3.03;;;;;;;13.00;66.80;148349.78;5070515;28;20196;-48
2023/05/08 03:36:08;;;;;;;5.10;3.40;;;;;;;13.05;66.92;148361.16;5084228;28;20318;-49
2023/05/08 03:39:11;;;;;;;3.37;3.17;;;;;;;13.08;67.04;148368.72;5087552;28;20565;-49
2023/05/08 03:42:20;;;;;;;4.50;3.53;;;;;;;13.12;67.28;148377.50;5090924;28;20751;-49
2023/05/08 03:45:17;;;;;;;4.53;3.47;;;;;;;13.29;66.87;148421.66;5090659;28;20674;-49
2023/05/08 03:48:07;;;;;;;5.90;3.80;;;;;;;13.33;66.57;148430.47;5090397;28;20222;-49
2023/05/08 03:50:55;;;;;;;5.17;3.43;;;;;;;13.43;66.56;148455.72;5090610;28;20199;-50
2023/05/08 03:57:01;;;;;;;4.80;3.43;;;;;;;13.87;64.59;148564.09;5089671;28;20195;-47
2023/05/08 04:00:01;;;;;;;4.93;3.90;;;;;;;14.17;63.67;148639.72;5089822;28;20260;-51
2023/05/08 04:02:53;;;;;;;4.27;3.53;;;;;;;14.81;61.86;148798.66;5089366;28;20203;-51
2023/05/08 04:05:48;;;;;;;10.10;4.23;;;;;;;16.08;57.28;149115.50;5087941;28;20191;-50
2023/05/08 04:08:26;;;;;;;4.47;3.93;;;;;;;17.07;54.25;149361.84;5090159;28;20214;-50
2023/05/08 04:11:25;;;;;;;7.10;3.70;;;;;;;18.55;50.06;149729.81;5088472;28;25066;-50
2023/05/08 04:14:28;;;;;;;3.55;3.20;;;;;;;20.21;45.68;150146.31;5090089;28;20282;-50
2023/05/08 04:17:09;;;;;;;8.95;4.28;;;;;;;21.71;42.02;150520.19;5087335;28;20244;-50
2023/05/08 04:20:16;;;;;;;7.32;4.93;;;;;;;22.40;39.07;150693.97;5087527;28;20207;-49
2023/05/08 04:22:58;;;;;;;6.15;4.18;;;;;;;23.45;37.31;150956.66;5088923;28;20604;-50
2023/05/08 04:25:37;;;;;;;6.22;3.90;;;;;;;24.10;36.00;151119.19;5088537;28;20225;-51
2023/05/08 04:34:48;;;;;;;3.88;3.58;;;;;;;25.67;32.06;151511.84;5088458;28;20234;-50
2023/05/08 04:37:39;;;;;;;5.07;3.70;;;;;;;26.31;30.93;151672.06;5068733;28;20202;-52
2023/05/08 04:40:40;;;;;;;6.45;3.30;;;;;;;26.46;30.93;151708.97;5069834;28;20199;-48
2023/05/08 04:46:38;;;;;;;3.90;3.60;;;;;;;27.77;28.99;152039.81;5060887;28;20203;-51
2023/05/08 04:52:09;;;;;;;4.75;3.63;;;;;;;29.37;27.00;152441.03;5067155;28;20675;-51
2023/05/08 04:55:22;;;;;;;5.97;4.00;;;;;;;29.90;26.41;152573.59;5069616;28;20203;-52
2023/05/08 05:04:38;;;;;;;3.08;2.72;;;;;;;29.91;25.40;152577.34;5069377;28;20274;-51
2023/05/08 05:07:31;;;;;;;3.55;3.25;;;;;;;29.35;25.95;152435.88;5066371;28;20675;-47
2023/05/08 05:16:18;;;;;;;6.22;3.10;;;;;;;28.67;26.56;152265.16;5066125;28;20290;-49
2023/05/08 05:19:01;;;;;;;3.50;3.20;;;;;;;28.89;26.86;152321.25;5068856;28;20728;-52
2023/05/08 05:21:36;;;;;;;8.93;3.67;;;;;;;29.40;26.36;152448.69;5068630;28;20200;-50
2023/05/08 05:24:09;;;;;;;4.97;3.60;;;;;;;30.01;25.90;152600.38;5067735;28;20200;-52
2023/05/08 05:26:42;;;;;;;7.63;3.78;;;;;;;30.13;25.78;152630.97;5068325;28;20223;-50
2023/05/08 05:29:20;;;;;;;4.95;3.38;;;;;;;30.11;25.72;152627.16;5066029;28;20311;-51
2023/05/08 05:32:01;;;;;;;4.57;3.35;;;;;;;30.38;25.30;152693.38;5067823;28;20253;-52
2023/05/08 05:34:43;;;;;;;6.15;3.70;;;;;;;30.27;25.07;152667.91;5066712;28;20663;-50
2023/05/08 05:37:22;;;;;;;4.65;3.40;;;;;;;30.18;25.15;152644.97;5066047;28;20276;-52
2023/05/08 05:40:05;;;;;;;4.82;3.38;;;;;;;30.36;24.97;152688.34;5066398;28;20206;-51
2023/05/08 05:42:49;;;;;;;6.25;3.38;;;;;;;30.37;24.67;152690.84;5068751;28;20195;-48
2023/05/08 05:45:42;;;;;;;4.30;3.30;;;;;;;30.19;24.92;152647.53;5070894;28;20196;-50
2023/05/08 05:48:31;;;;;;;4.85;3.50;;;;;;;29.30;25.82;152421.91;5069515;28;20196;-48
2023/05/08 05:51:11;;;;;;;5.88;3.35;;;;;;;29.49;25.50;152470.34;5071881;28;20207;-50
2023/05/08 05:53:59;;;;;;;6.68;3.80;;;;;;;29.76;25.91;152537.88;5066689;28;20203;-51
2023/05/08 05:56:51;;;;;;;7.07;3.97;;;;;;;30.08;26.37;152619.47;5071619;28;20200;-51
2023/05/08 05:59:59;;;;;;;6.78;4.88;;;;;;;29.31;26.86;152425.72;5069059;28;20246;-52
2023/05/08 06:02:59;;;;;;;4.82;4.07;;;;;;;29.22;26.81;152404.09;5071302;28;20203;-51
2023/05/08 06:05:59;;;;;;;5.45;3.30;;;;;;;28.42;27.11;152201.56;5071522;28;20657;-51
2023/05/08 06:08:47;;;;;;;5.95;3.03;;;;;;;28.23;26.42;152153.13;5071488;28;20289;-51
2023/05/08 06:11:59;;;;;;;3.45;3.15;;;;;;;27.96;27.19;152086.94;5070648;28;20227;-50
2023/05/08 06:14:58;;;;;;;4.40;2.60;;;;;;;28.59;26.60;152243.53;5071360;28;20218;-51
2023/05/08 06:17:27;;;;;;;4.53;3.20;;;;;;;27.88;27.87;152066.53;5070888;28;20202;-52
2023/05/08 06:20:00;;;;;;;3.28;3.08;;;;;;;28.38;26.83;152192.63;5071139;28;20678;-52
2023/05/08 06:22:40;;;;;;;3.20;2.88;;;;;;;28.50;27.19;152221.91;5071349;28;20581;-51
2023/05/08 06:25:30;;;;;;;3.78;3.47;;;;;;;28.85;26.86;152309.81;5071161;28;20254;-51
2023/05/08 06:28:13;;;;;;;6.60;3.65;;;;;;;29.24;26.68;152407.88;5070808;28;20200;-50
2023/05/08 06:30:53;;;;;;;4.20;3.70;;;;;;;28.85;26.87;152311.09;5069242;28;20576;-51
2023/05/08 06:33:24;;;;;;;3.78;3.40;;;;;;;28.86;27.20;152313.66;5069425;28;20682;-52
2023/05/08 06:36:02;;;;;;;4.90;4.35;;;;;;;28.33;27.31;152179.88;5068457;28;20223;-54
2023/05/08 06:38:58;;;;;;;7.00;4.13;;;;;;;28.04;28.05;152107.28;5057737;28;20749;-51
2023/05/08 06:41:58;;;;;;;4.97;4.00;;;;;;;26.26;29.64;151659.34;5051600;28;20723;-50
2023/05/08 06:44:55;;;;;;;10.48;3.97;;;;;;;26.79;29.41;151792.91;5051394;28;20199;-50
2023/05/08 06:47:57;;;;;;;4.35;3.88;;;;;;;27.00;29.49;151845.09;5051108;28;20747;-49
2023/05/08 06:53:47;;;;;;;4.10;3.70;;;;;;;28.11;28.57;152123.81;5051481;28;20228;-51
2023/05/08 06:56:55;;;;;;;4.47;4.07;;;;;;;28.15;28.27;152135.28;5051224;28;20219;-51
2023/05/08 07:00:05;;;;;;;4.00;3.42;;;;;;;28.35;27.79;152183.69;5049480;28;20224;-50
2023/05/08 07:03:14;;;;;;;5.95;3.72;;;;;;;27.64;28.90;152005.47;5050887;28;20196;-51
2023/05/08 07:05:57;;;;;;;3.95;3.58;;;;;;;27.54;29.70;151981.22;5055205;28;20280;-48
2023/05/08 07:08:46;;;;;;;6.35;3.20;;;;;;;27.43;29.53;151954.50;5069260;28;20198;-50
2023/05/08 07:11:23;;;;;;;5.70;3.83;;;;;;;26.83;30.19;151801.81;5070550;28;20202;-48
2023/05/08 07:14:07;;;;;;;8.48;3.60;;;;;;;26.59;30.75;151743.31;5067356;28;20195;-50
2023/05/08 07:17:18;;;;;;;5.45;3.63;;;;;;;26.51;30.96;151721.69;5067893;28;20200;-48
2023/05/08 07:20:37;;;;;;;5.45;3.55;;;;;;;26.10;31.82;151618.63;5065896;28;20714;-51
2023/05/08 07:23:08;;;;;;;3.75;3.42;;;;;;;26.81;31.10;151796.72;5068000;28;20202;-52
2023/05/08 07:25:53;;;;;;;4.32;3.83;;;;;;;27.37;30.17;151937.97;5069639;28;20235;-48
2023/05/08 07:28:38;;;;;;;4.20;3.83;;;;;;;27.74;30.26;152030.94;5064791;28;20192;-52
2023/05/08 07:31:26;;;;;;;8.68;4.30;;;;;;;28.27;29.28;152163.34;5050513;28;20201;-49
2023/05/08 07:34:22;;;;;;;4.10;3.70;;;;;;;29.18;28.38;152393.88;5049691;28;20640;-50
2023/05/08 07:37:18;;;;;;;4.85;4.43;;;;;;;29.10;28.25;152372.25;5063273;28;20204;-50
2023/05/08 07:39:54;;;;;;;4.40;4.00;;;;;;;29.53;27.61;152480.56;5068743;28;20598;-52
2023/05/08 07:42:55;;;;;;;6.13;4.88;;;;;;;29.29;27.55;152420.63;5057552;28;20215;-49
2023/05/08 07:45:29;;;;;;;7.60;4.45;;;;;;;29.67;27.61;152516.25;5050616;28;20208;-53
2023/05/08 07:48:07;;;;;;;4.07;3.78;;;;;;;30.17;27.21;152641.13;5050312;28;20781;-50
2023/05/08 07:50:51;;;;;;;4.50;4.00;;;;;;;30.33;27.06;152683.22;5049823;28;20283;-53
2023/05/08 07:53:27;;;;;;;7.22;4.15;;;;;;;29.79;27.93;152545.53;5050121;28;20661;-52
2023/05/08 07:56:02;;;;;;;5.00;3.90;;;;;;;29.81;27.56;152550.59;5050621;28;20192;-52
2023/05/08 07:58:35;;;;;;;5.13;4.03;;;;;;;30.00;28.02;152597.84;5050131;28;20260;-50
2023/05/08 08:01:15;;;;;;;6.28;3.97;;;;;;;30.07;27.57;152615.66;5049088;28;20224;-51
2023/05/08 08:03:45;;;;;;;6.20;4.07;;;;;;;30.55;27.27;152736.81;5049366;28;20237;-49
2023/05/08 08:06:27;;;;;;;6.90;3.88;;;;;;;30.57;27.40;152743.19;5049327;28;20307;-49
2023/05/08 08:09:27;;;;;;;4.93;4.05;;;;;;;31.04;26.69;152860.44;5049507;28;20274;-49
2023/05/08 08:12:06;;;;;;;11.50;3.97;;;;;;;31.10;26.82;152875.81;5066522;28;20707;-52
2023/05/08 08:14:46;;;;;;;11.50;4.85;;;;;;;30.82;26.96;152805.63;5068640;28;20334;-53
2023/05/08 08:17:27;;;;;;;4.43;4.10;;;;;;;30.24;27.54;152659.00;5068319;28;20792;-51
2023/05/08 08:20:14;;;;;;;4.90;4.00;;;;;;;30.17;27.65;152642.41;5050698;28;20263;-51
2023/05/08 08:23:10;;;;;;;5.15;4.75;;;;;;;29.34;28.68;152433.38;5049451;28;20216;-48
2023/05/08 08:26:04;;;;;;;9.70;4.90;;;;;;;29.29;28.85;152420.63;5061826;28;20857;-51
2023/05/08 08:28:50;;;;;;;5.13;4.68;;;;;;;28.96;29.70;152336.56;5069772;28;20202;-50
2023/05/08 08:34:51;;;;;;;5.47;5.00;;;;;;;26.39;32.63;151692.44;5069281;28;20203;-51
2023/05/08 08:37:23;;;;;;;5.10;4.60;;;;;;;25.59;34.51;151492.75;5068821;28;20591;-52
2023/05/08 08:40:13;;;;;;;7.47;4.68;;;;;;;25.95;34.09;151581.78;5069730;28;20719;-52
2023/05/08 08:43:22;;;;;;;8.30;5.03;;;;;;;26.07;34.29;151612.31;5068473;28;20276;-52
2023/05/08 08:46:32;;;;;;;7.97;4.68;;;;;;;27.17;32.79;151887.09;5069246;28;20253;-52
2023/05/08 08:49:40;;;;;;;6.15;4.45;;;;;;;27.57;31.80;151987.63;5067407;28;20754;-54
2023/05/08 08:52:52;;;;;;;;;;;;;;;;;;;;;
2023/05/08 08:55:44;;;;;;;5.57;4.63;;;;;;;28.08;31.79;152116.19;5065078;28;20192;-52
2023/05/08 09:07:49;;;;;;;;;;;;;;;;;;;;;
2023/05/08 09:10:38;;;;;;;7.80;5.30;;;;;;;27.98;32.00;152090.75;5068893;28;20191;-50
2023/05/08 09:13:32;;;;;;;7.88;5.40;;;;;;;28.39;31.09;152193.91;5067785;28;20224;-50
2023/05/08 09:16:37;;;;;;;;;;;;;;;;;;;;;
2023/05/08 09:22:38;;;;;;;15.13;5.50;;;;;;;29.00;30.69;152346.78;5072947;28;20264;-53
2023/05/08 09:28:57;;;;;;;9.30;5.32;;;;;;;28.26;31.30;152162.06;4443787;27;20234011;-48
2023/05/08 09:35:06;;;;;;;5.72;5.25;;;;;;;28.45;31.51;152209.16;5144637;27;20672;-53
2023/05/08 09:54:06;;;;;;;6.82;6.22;;;;;;;28.29;31.87;152169.72;5147153;27;20193;-53
2023/05/08 09:57:09;;;;;;;6.70;6.10;;;;;;;28.65;32.17;152260.13;5148352;27;20190;-52
2023/05/08 10:00:26;;;;;;;7.50;6.65;;;;;;;28.66;31.99;152261.41;5141557;27;20194;-52
2023/05/08 10:06:40;;;;;;;10.05;6.65;;;;;;;27.87;33.60;152062.75;5141707;27;20197;-50
2023/05/08 10:09:49;;;;;;;8.77;6.70;;;;;;;27.70;33.33;152022.00;5148034;27;20673;-49
2023/05/08 10:15:54;;;;;;;13.23;7.03;;;;;;;27.16;34.30;151885.81;5146918;27;20201;-52
2023/05/08 10:31:24;;;;;;;6.40;5.80;;;;;;;26.15;36.55;151631.38;5141888;27;20257;-52
2023/05/08 10:34:07;;;;;;;5.82;5.40;;;;;;;25.94;36.73;151580.53;5146383;27;20189;-53
2023/05/08 10:37:18;;;;;;;9.15;6.75;;;;;;;26.07;36.81;151611.03;5146663;27;20587;-48
2023/05/08 10:40:31;;;;;;;9.13;6.50;;;;;;;26.00;37.61;151594.47;5145284;27;20266;-51
2023/05/08 10:43:22;;;;;;;8.10;5.88;;;;;;;25.76;37.46;151534.72;5141148;27;20225;-52
2023/05/08 10:49:30;;;;;;;6.85;6.00;;;;;;;25.47;38.00;151461.00;5145842;27;20574;-52
2023/05/08 10:52:38;;;;;;;7.60;6.32;;;;;;;25.13;38.77;151377.13;5143946;27;20600;-48
2023/05/08 10:58:40;;;;;;;5.90;5.38;;;;;;;25.41;39.43;151445.72;5144481;27;20197;-49
2023/05/08 11:01:16;;;;;;;10.90;6.20;;;;;;;25.63;39.01;151502.94;5145371;27;20260;-53
2023/05/08 11:03:57;;;;;;;7.43;6.78;;;;;;;25.71;38.98;151520.78;5147739;27;20189;-52
2023/05/08 11:06:52;;;;;;;7.53;6.80;;;;;;;25.62;38.97;151499.19;5147513;27;20264;-48
2023/05/08 11:09:35;;;;;;;6.93;6.28;;;;;;;25.44;39.35;151454.63;5146500;27;20189;-49
2023/05/08 11:16:05;;;;;;;7.53;6.72;;;;;;;25.27;39.84;151411.44;5133123;27;20197;-52
2023/05/08 11:19:00;;;;;;;8.90;5.85;;;;;;;25.30;39.65;151419.03;5145844;27;20204;-53
2023/05/08 11:21:38;;;;;;;7.47;6.78;;;;;;;25.27;39.58;151412.72;5143863;27;20224;-51
2023/05/08 11:24:21;;;;;;;6.90;6.25;;;;;;;25.38;39.50;151438.13;5144651;27;20205;-52
2023/05/08 11:27:08;;;;;;;10.35;7.20;;;;;;;25.33;39.79;151427.94;5144028;27;20247;-52
2023/05/08 11:30:08;;;;;;;7.72;6.47;;;;;;;25.42;39.63;151449.53;5145814;27;20708;-52
2023/05/08 11:33:40;;;;;;;6.70;6.07;;;;;;;25.56;39.49;151485.13;5132028;27;20190;-50
2023/05/08 11:37:07;;;;;;;6.40;5.90;;;;;;;25.70;39.38;151518.22;5133491;27;20222;-48
2023/05/08 11:40:22;;;;;;;11.68;6.85;;;;;;;25.62;39.20;151499.19;5130925;27;20222;-49
2023/05/08 11:46:17;;;;;;;7.93;6.55;;;;;;;25.65;39.43;151506.75;5131105;27;20229;-52
2023/05/08 11:49:08;;;;;;;7.25;6.35;;;;;;;25.65;39.37;151508.03;5132509;27;20266;-48
2023/05/08 11:55:21;;;;;;;10.88;6.97;;;;;;;25.86;39.32;151560.16;5131126;27;20262;-48
2023/05/08 11:57:49;;;;;;;13.30;6.95;;;;;;;25.98;39.35;151589.38;5132436;27;20282;-50
2023/05/08 12:00:25;;;;;;;6.43;5.88;;;;;;;25.88;39.48;151565.25;5132034;27;20602;-49
2023/05/08 12:03:11;;;;;;;6.60;6.00;;;;;;;25.90;39.75;151570.34;5130350;27;20262;-52
2023/05/08 12:05:56;;;;;;;13.35;6.68;;;;;;;25.67;40.13;151511.84;5131234;27;20190;-50
2023/05/08 12:08:51;;;;;;;6.38;5.72;;;;;;;25.62;39.96;151499.19;5131873;27;20196;-51
2023/05/08 12:11:42;;;;;;;8.00;7.13;;;;;;;25.67;39.86;151513.13;5131535;27;20563;-50
2023/05/08 12:14:16;;;;;;;7.07;6.22;;;;;;;25.76;40.08;151533.47;5129093;27;20198;-48
2023/05/08 12:16:53;;;;;;;7.43;6.53;;;;;;;25.94;39.57;151579.25;5132586;27;20276;-49
2023/05/08 12:19:42;;;;;;;7.40;6.68;;;;;;;25.95;39.92;151583.06;5131805;27;20221;-48
2023/05/08 12:22:41;;;;;;;6.55;5.85;;;;;;;25.77;40.32;151537.28;5125032;27;20642;-49
2023/05/08 12:25:13;;;;;;;29.95;6.95;;;;;;;25.66;40.77;151510.59;5122229;27;20209;-51
2023/05/08 12:27:50;;;;;;;6.22;5.63;;;;;;;25.58;40.91;151488.94;5132511;27;20197;-50
2023/05/08 12:30:39;;;;;;;9.05;5.38;;;;;;;25.51;41.30;151472.41;5131107;27;20628;-49
2023/05/08 12:33:18;;;;;;;6.60;5.50;;;;;;;25.45;41.47;151457.16;5129517;27;20281;-52
2023/05/08 12:35:54;;;;;;;6.22;4.43;;;;;;;25.40;41.22;151443.16;5132190;27;20194;-52
2023/05/08 12:38:28;;;;;;;7.00;5.40;;;;;;;25.32;40.91;151425.41;5131875;27;20274;-53
2023/05/08 12:41:08;;;;;;;5.55;4.80;;;;;;;25.38;41.00;151439.38;5130661;27;20297;-51
2023/05/08 12:43:52;;;;;;;11.25;4.07;;;;;;;25.42;40.88;151448.25;5128853;27;20267;-50
2023/05/08 12:46:22;;;;;;;7.43;4.82;;;;;;;25.35;40.92;151430.47;5130572;27;20201;-50
2023/05/08 12:49:06;;;;;;;8.48;4.28;;;;;;;25.49;40.96;151466.06;5127097;27;20631;-52
2023/05/08 12:51:43;;;;;;;11.50;9.02;;;;;;;25.55;40.73;151482.59;5129093;27;20281;-53
2023/05/08 12:54:16;;;;;;;5.57;4.30;;;;;;;25.59;40.68;151491.50;5129792;27;20197;-49
2023/05/08 12:56:49;;;;;;;4.35;3.95;;;;;;;25.75;40.61;151532.19;5131551;27;20190;-51
2023/05/08 12:59:34;;;;;;;4.78;4.32;;;;;;;25.61;40.66;151496.63;5131948;27;20190;-50
2023/05/08 13:02:13;;;;;;;11.32;4.95;;;;;;;25.63;40.67;151502.94;5129315;27;20221;-53
2023/05/08 13:04:46;;;;;;;8.13;4.28;;;;;;;25.49;41.46;151466.06;5130890;27;20572;-51
2023/05/08 13:07:23;;;;;;;9.98;4.43;;;;;;;25.49;41.08;151467.34;5130809;27;20193;-47
2023/05/08 13:10:09;;;;;;;4.22;3.90;;;;;;;25.51;41.71;151471.13;5130989;27;20595;-49
2023/05/08 13:12:45;;;;;;;4.75;3.83;;;;;;;25.47;41.54;151462.25;5130591;27;20190;-49
2023/05/08 13:15:23;;;;;;;5.85;3.92;;;;;;;25.47;41.73;151461.00;5130027;27;20201;-50
2023/05/08 13:17:58;;;;;;;11.65;3.80;;;;;;;25.43;41.34;151450.81;5129478;27;20197;-50
2023/05/08 13:20:44;;;;;;;4.32;3.92;;;;;;;25.37;41.15;151436.84;5129969;27;20221;-49
2023/05/08 13:23:14;;;;;;;10.65;4.78;;;;;;;25.30;40.83;151419.03;5129680;27;20695;-51
2023/05/08 13:25:52;;;;;;;5.60;3.28;;;;;;;25.19;41.29;151391.06;5129748;27;20197;-51
2023/05/08 13:28:47;;;;;;;4.43;3.75;;;;;;;25.01;41.77;151346.63;5130843;27;20193;-50
2023/05/08 13:31:21;;;;;;;6.47;4.30;;;;;;;24.97;42.06;151336.44;5129932;27;20282;-51
2023/05/08 13:37:35;;;;;;;4.03;3.72;;;;;;;24.73;42.75;151275.41;5128873;27;20213;-48
2023/05/08 13:40:11;;;;;;;4.20;3.88;;;;;;;24.55;43.22;151230.97;5115636;27;20584;-52
2023/05/08 13:42:46;;;;;;;6.85;5.03;;;;;;;24.55;43.32;151230.97;5119039;27;20308;-51
2023/05/08 13:45:29;;;;;;;6.55;3.78;;;;;;;24.52;42.91;151224.63;5130079;27;20296;-50
2023/05/08 13:48:07;;;;;;;9.38;3.92;;;;;;;24.64;43.07;151253.81;5129676;27;20225;-47
2023/05/08 13:50:42;;;;;;;4.60;4.28;;;;;;;24.78;42.66;151288.13;5130713;27;20225;-50
2023/05/08 13:53:27;;;;;;;4.22;3.92;;;;;;;24.86;42.67;151309.72;5130709;27;20253;-52
2023/05/08 13:55:58;;;;;;;6.32;4.20;;;;;;;24.92;42.79;151323.72;5129944;27;20221;-49
2023/05/08 13:58:34;;;;;;;5.40;3.70;;;;;;;24.96;42.73;151333.91;5127985;27;20228;-51
2023/05/08 14:01:18;;;;;;;3.70;3.40;;;;;;;24.95;42.80;151331.34;5110484;27;20728;-51
2023/05/08 14:04:18;;;;;;;9.43;4.18;;;;;;;24.96;42.73;151333.91;5120799;27;20302;-50
2023/05/08 14:07:04;;;;;;;5.05;4.30;;;;;;;24.83;43.28;151302.09;5125817;27;20197;-50
2023/05/08 14:09:50;;;;;;;5.30;4.68;;;;;;;24.73;43.41;151276.69;5130467;27;20222;-53
2023/05/08 14:12:34;;;;;;;7.25;4.43;;;;;;;24.52;43.76;151224.63;5130372;27;20193;-53
2023/05/08 14:15:23;;;;;;;8.80;4.22;;;;;;;24.56;43.72;151233.53;5129185;27;20193;-53
2023/05/08 14:18:40;;;;;;;7.35;4.75;;;;;;;24.51;44.05;151222.06;5130903;27;20189;-52
2023/05/08 14:21:35;;;;;;;4.93;4.10;;;;;;;24.55;44.80;151232.25;5126985;27;20221;-53
2023/05/08 14:24:29;;;;;;;8.70;4.78;;;;;;;24.54;46.35;151229.69;5130476;28;20197;-50
2023/05/08 14:30:14;;;;;;;3.92;3.50;;;;;;;24.54;46.34;151229.69;5127919;28;20202;-52
2023/05/08 14:33:21;;;;;;;5.97;3.38;;;;;;;24.53;46.64;151227.16;5131088;28;20201;-50
2023/05/08 14:35:55;;;;;;;5.78;3.42;;;;;;;24.52;46.64;151224.63;5124644;28;20224;-49
2023/05/08 14:38:44;;;;;;;3.72;3.42;;;;;;;24.48;46.50;151213.22;5130494;28;20194;-50
2023/05/08 14:45:01;;;;;;;4.72;3.63;;;;;;;24.36;46.74;151182.72;5130492;28;20197;-50
2023/05/08 14:50:47;;;;;;;8.40;6.18;;;;;;;24.21;47.91;151147.13;5128593;28;20209;-52
2023/05/08 14:53:47;;;;;;;6.78;5.63;;;;;;;24.23;47.29;151152.25;5130579;28;20750;-53
2023/05/08 15:02:52;;;;;;;4.22;4.03;;;;;;;24.19;47.12;151140.75;5129327;28;20257;-52
2023/05/08 15:05:54;;;;;;;3.95;3.75;;;;;;;24.18;46.84;151138.22;5125627;27;20289;-48
2023/05/08 15:08:54;;;;;;;10.00;3.80;;;;;;;24.02;47.02;151097.59;5134443;27;20236;-49
2023/05/08 15:11:56;;;;;;;4.40;3.70;;;;;;;24.10;46.70;151119.19;5133703;27;20189;-50
2023/05/08 15:14:52;;;;;;;4.25;3.95;;;;;;;24.06;46.87;151107.72;5127662;27;20193;-50
2023/05/08 15:17:47;;;;;;;4.85;3.85;;;;;;;24.06;47.09;151107.72;5134073;27;20296;-51
2023/05/08 15:20:59;;;;;;;4.25;4.05;;;;;;;24.07;46.73;151111.53;5132331;27;20663;-51
2023/05/08 15:23:41;;;;;;;4.25;3.95;;;;;;;23.98;47.02;151088.69;5132211;27;20229;-50
2023/05/08 15:26:34;;;;;;;;;;;;;;;;;;;;;
2023/05/08 15:32:42;;;;;;;5.90;3.92;;;;;;;23.72;47.77;151022.66;5131435;27;20585;-49
2023/05/08 15:35:57;;;;;;;12.30;4.45;;;;;;;23.52;51.40;150974.44;5131563;27;20288;-51
2023/05/08 15:38:54;;;;;;;4.70;4.30;;;;;;;23.43;54.07;150950.28;5131810;27;20198;-50
2023/05/08 15:41:46;;;;;;;9.73;4.35;;;;;;;23.18;55.93;150889.38;5128162;27;20721;-52
2023/05/08 15:44:46;;;;;;;4.70;4.40;;;;;;;23.07;56.87;150861.47;5133538;27;20198;-52
2023/05/08 15:47:38;;;;;;;4.50;4.20;;;;;;;22.90;57.06;150818.34;5133642;27;20284;-53
2023/05/08 15:53:24;;;;;;;4.75;4.22;;;;;;;22.49;57.93;150714.25;5132550;27;20209;-49
2023/05/08 15:56:27;;;;;;;4.50;4.10;;;;;;;22.31;58.69;150669.88;5112463;28;20314;-48
2023/05/08 16:02:16;;;;;;;7.15;4.50;;;;;;;22.14;59.40;150626.72;5128544;27;20229;-48
2023/05/08 16:05:06;;;;;;;4.18;3.88;;;;;;;22.06;60.79;150607.72;5129690;27;20198;-48
2023/05/08 16:08:08;;;;;;;4.97;4.40;;;;;;;21.93;62.74;150575.97;5133037;27;20229;-50
2023/05/08 16:11:03;;;;;;;4.30;3.70;;;;;;;21.89;64.41;150564.59;5132834;27;20195;-50
2023/05/08 16:14:06;;;;;;;8.43;4.15;;;;;;;21.80;66.51;150541.72;5132515;27;20198;-49